sensor_id;sensor_type;location;lat;lon;timestamp;pressure;altitude;pressure_sealevel;temperature;humidity
33280;BME280;20403;43.114;12.434;2023-06-14T00:02:09;98628.50;;;18.81;100.00
33280;BME280;20403;43.114;12.434;2023-06-14T00:04:34;98626.72;;;18.77;100.00
33280;BME280;20403;43.114;12.434;2023-06-14T00:07:00;98627.72;;;18.81;100.00
33280;BME280;20403;43.114;12.434;2023-06-14T00:09:26;98624.06;;;18.77;100.00
33280;BME280;20403;43.114;12.434;2023-06-14T00:11:52;98625.00;;;18.67;100.00
33280;BME280;20403;43.114;12.434;2023-06-14T00:14:17;98625.00;;;18.67;100.00
33280;BME280;20403;43.114;12.434;2023-06-14T00:16:43;98629.41;;;18.72;100.00
33280;BME280;20403;43.114;12.434;2023-06-14T00:19:09;98621.44;;;18.77;100.00
33280;BME280;20403;43.114;12.434;2023-06-14T00:21:36;98626.47;;;18.73;100.00
33280;BME280;20403;43.114;12.434;2023-06-14T00:24:01;98623.00;;;18.78;100.00
33280;BME280;20403;43.114;12.434;2023-06-14T00:26:27;98623.28;;;18.76;100.00
33280;BME280;20403;43.114;12.434;2023-06-14T00:28:55;98617.44;;;18.79;100.00
33280;BME280;20403;43.114;12.434;2023-06-14T00:31:24;98616.84;;;18.82;100.00
33280;BME280;20403;43.114;12.434;2023-06-14T00:33:49;98609.66;;;18.88;100.00
33280;BME280;20403;43.114;12.434;2023-06-14T00:36:15;98609.22;;;18.81;100.00
33280;BME280;20403;43.114;12.434;2023-06-14T00:38:40;98612.72;;;18.76;100.00
33280;BME280;20403;43.114;12.434;2023-06-14T00:41:06;98619.50;;;18.82;100.00
33280;BME280;20403;43.114;12.434;2023-06-14T00:43:31;98616.66;;;18.79;100.00
33280;BME280;20403;43.114;12.434;2023-06-14T00:45:57;98612.97;;;18.75;100.00
33280;BME280;20403;43.114;12.434;2023-06-14T00:48:22;98605.06;;;18.75;100.00
33280;BME280;20403;43.114;12.434;2023-06-14T00:50:50;98604.72;;;18.81;100.00
33280;BME280;20403;43.114;12.434;2023-06-14T00:53:18;98604.91;;;18.85;100.00
33280;BME280;20403;43.114;12.434;2023-06-14T00:55:48;98600.22;;;18.82;100.00
33280;BME280;20403;43.114;12.434;2023-06-14T00:58:14;98607.06;;;18.83;100.00
33280;BME280;20403;43.114;12.434;2023-06-14T01:00:39;98601.59;;;18.79;100.00
33280;BME280;20403;43.114;12.434;2023-06-14T01:03:05;98602.09;;;18.81;100.00
33280;BME280;20403;43.114;12.434;2023-06-14T01:05:31;98601.00;;;18.82;100.00
33280;BME280;20403;43.114;12.434;2023-06-14T01:08:26;98605.78;;;18.80;100.00
33280;BME280;20403;43.114;12.434;2023-06-14T01:11:02;98599.50;;;18.76;100.00
33280;BME280;20403;43.114;12.434;2023-06-14T01:13:34;98591.34;;;18.73;100.00
33280;BME280;20403;43.114;12.434;2023-06-14T01:16:02;98596.84;;;18.76;100.00
33280;BME280;20403;43.114;12.434;2023-06-14T01:18:29;98596.03;;;18.76;100.00
33280;BME280;20403;43.114;12.434;2023-06-14T01:20:55;98589.22;;;18.75;100.00
33280;BME280;20403;43.114;12.434;2023-06-14T01:23:21;98592.63;;;18.75;100.00
33280;BME280;20403;43.114;12.434;2023-06-14T01:25:48;98592.50;;;18.66;100.00
33280;BME280;20403;43.114;12.434;2023-06-14T01:28:18;98584.50;;;18.72;100.00
33280;BME280;20403;43.114;12.434;2023-06-14T01:30:50;98583.38;;;18.78;100.00
33280;BME280;20403;43.114;12.434;2023-06-14T01:33:20;98581.16;;;18.85;100.00
33280;BME280;20403;43.114;12.434;2023-06-14T01:35:53;98583.91;;;18.94;100.00
33280;BME280;20403;43.114;12.434;2023-06-14T01:38:20;98581.00;;;18.95;100.00
33280;BME280;20403;43.114;12.434;2023-06-14T01:40:47;98582.06;;;18.94;100.00
33280;BME280;20403;43.114;12.434;2023-06-14T01:43:14;98583.69;;;18.90;100.00
33280;BME280;20403;43.114;12.434;2023-06-14T01:45:41;98584.97;;;18.79;100.00
33280;BME280;20403;43.114;12.434;2023-06-14T01:48:07;98582.34;;;18.74;100.00
33280;BME280;20403;43.114;12.434;2023-06-14T01:50:33;98584.28;;;18.68;100.00
33280;BME280;20403;43.114;12.434;2023-06-14T01:52:59;98577.66;;;18.71;100.00
33280;BME280;20403;43.114;12.434;2023-06-14T01:55:24;98580.88;;;18.67;100.00
33280;BME280;20403;43.114;12.434;2023-06-14T01:57:51;98582.44;;;18.68;100.00
33280;BME280;20403;43.114;12.434;2023-06-14T02:00:17;98577.81;;;18.60;100.00
33280;BME280;20403;43.114;12.434;2023-06-14T02:02:43;98580.81;;;18.54;100.00
33280;BME280;20403;43.114;12.434;2023-06-14T02:05:09;98577.16;;;18.50;100.00
33280;BME280;20403;43.114;12.434;2023-06-14T02:07:35;98577.81;;;18.60;100.00
33280;BME280;20403;43.114;12.434;2023-06-14T02:10:01;98572.44;;;18.65;100.00
33280;BME280;20403;43.114;12.434;2023-06-14T02:12:27;98572.94;;;18.67;100.00
33280;BME280;20403;43.114;12.434;2023-06-14T02:14:52;98567.16;;;18.65;100.00
33280;BME280;20403;43.114;12.434;2023-06-14T02:17:17;98563.66;;;18.70;100.00
33280;BME280;20403;43.114;12.434;2023-06-14T02:19:43;98562.56;;;18.71;100.00
33280;BME280;20403;43.114;12.434;2023-06-14T02:22:09;98563.94;;;18.68;100.00
33280;BME280;20403;43.114;12.434;2023-06-14T02:24:34;98568.34;;;18.73;100.00
33280;BME280;20403;43.114;12.434;2023-06-14T02:27:01;98574.31;;;18.65;100.00
33280;BME280;20403;43.114;12.434;2023-06-14T02:29:26;98567.09;;;18.71;100.00
33280;BME280;20403;43.114;12.434;2023-06-14T02:31:52;98555.88;;;18.60;100.00
33280;BME280;20403;43.114;12.434;2023-06-14T02:34:17;98562.94;;;18.64;100.00
33280;BME280;20403;43.114;12.434;2023-06-14T02:36:45;98565.81;;;18.68;100.00
33280;BME280;20403;43.114;12.434;2023-06-14T02:39:10;98563.59;;;18.56;100.00
33280;BME280;20403;43.114;12.434;2023-06-14T02:41:36;98558.31;;;18.56;100.00
33280;BME280;20403;43.114;12.434;2023-06-14T02:44:01;98551.34;;;18.46;100.00
33280;BME280;20403;43.114;12.434;2023-06-14T02:46:27;98555.25;;;18.49;100.00
33280;BME280;20403;43.114;12.434;2023-06-14T02:48:52;98551.84;;;18.48;100.00
33280;BME280;20403;43.114;12.434;2023-06-14T02:51:18;98542.56;;;18.51;100.00
33280;BME280;20403;43.114;12.434;2023-06-14T02:53:43;98548.41;;;18.48;100.00
33280;BME280;20403;43.114;12.434;2023-06-14T02:56:09;98548.41;;;18.48;100.00
33280;BME280;20403;43.114;12.434;2023-06-14T02:58:36;98547.34;;;18.49;100.00
33280;BME280;20403;43.114;12.434;2023-06-14T03:01:02;98544.63;;;18.54;100.00
33280;BME280;20403;43.114;12.434;2023-06-14T03:03:29;98545.72;;;18.53;100.00
33280;BME280;20403;43.114;12.434;2023-06-14T03:05:55;98541.69;;;18.56;100.00
33280;BME280;20403;43.114;12.434;2023-06-14T03:08:21;98536.47;;;18.51;100.00
33280;BME280;20403;43.114;12.434;2023-06-14T03:10:52;98537.97;;;18.57;100.00
33280;BME280;20403;43.114;12.434;2023-06-14T03:13:18;98543.34;;;18.52;100.00
33280;BME280;20403;43.114;12.434;2023-06-14T03:15:46;98550.34;;;18.42;100.00
33280;BME280;20403;43.114;12.434;2023-06-14T03:18:12;98541.28;;;18.30;100.00
33280;BME280;20403;43.114;12.434;2023-06-14T03:20:40;98542.84;;;18.31;100.00
33280;BME280;20403;43.114;12.434;2023-06-14T03:23:06;98538.09;;;18.33;100.00
33280;BME280;20403;43.114;12.434;2023-06-14T03:25:31;98550.84;;;18.25;100.00
33280;BME280;20403;43.114;12.434;2023-06-14T03:28:01;98544.72;;;18.30;100.00
33280;BME280;20403;43.114;12.434;2023-06-14T03:30:26;98544.50;;;18.26;100.00
33280;BME280;20403;43.114;12.434;2023-06-14T03:32:52;98545.84;;;18.24;100.00
33280;BME280;20403;43.114;12.434;2023-06-14T03:35:18;98551.91;;;18.24;100.00
33280;BME280;20403;43.114;12.434;2023-06-14T03:37:44;98550.84;;;18.25;100.00
33280;BME280;20403;43.114;12.434;2023-06-14T03:40:12;98551.31;;;18.27;100.00
33280;BME280;20403;43.114;12.434;2023-06-14T03:42:37;98555.81;;;18.27;100.00
33280;BME280;20403;43.114;12.434;2023-06-14T03:45:03;98564.06;;;18.25;100.00
33280;BME280;20403;43.114;12.434;2023-06-14T03:47:29;98560.09;;;18.23;100.00
33280;BME280;20403;43.114;12.434;2023-06-14T03:49:55;98564.81;;;18.26;100.00
33280;BME280;20403;43.114;12.434;2023-06-14T03:52:20;98561.03;;;18.32;100.00
33280;BME280;20403;43.114;12.434;2023-06-14T03:54:47;98560.69;;;18.39;100.00
33280;BME280;20403;43.114;12.434;2023-06-14T03:57:12;98563.13;;;18.35;100.00
33280;BME280;20403;43.114;12.434;2023-06-14T03:59:38;98566.63;;;18.31;100.00
33280;BME280;20403;43.114;12.434;2023-06-14T04:02:03;98570.81;;;18.32;100.00
33280;BME280;20403;43.114;12.434;2023-06-14T04:04:29;98580.31;;;18.33;100.00
33280;BME280;20403;43.114;12.434;2023-06-14T04:06:55;98577.69;;;18.33;100.00
33280;BME280;20403;43.114;12.434;2023-06-14T04:09:23;98578.44;;;18.33;100.00
33280;BME280;20403;43.114;12.434;2023-06-14T04:11:50;98579.22;;;18.34;100.00
33280;BME280;20403;43.114;12.434;2023-06-14T04:14:15;98578.72;;;18.32;100.00
33280;BME280;20403;43.114;12.434;2023-06-14T04:16:40;98583.31;;;18.26;100.00
33280;BME280;20403;43.114;12.434;2023-06-14T04:19:06;98587.22;;;18.29;100.00
33280;BME280;20403;43.114;12.434;2023-06-14T04:21:31;98587.16;;;18.34;100.00
33280;BME280;20403;43.114;12.434;2023-06-14T04:24:00;98589.59;;;18.30;100.00
33280;BME280;20403;43.114;12.434;2023-06-14T04:26:27;98588.94;;;18.38;100.00
33280;BME280;20403;43.114;12.434;2023-06-14T04:28:59;98596.00;;;18.43;100.00
33280;BME280;20403;43.114;12.434;2023-06-14T04:31:30;98594.72;;;18.40;100.00
33280;BME280;20403;43.114;12.434;2023-06-14T04:33:59;98595.28;;;18.37;100.00
33280;BME280;20403;43.114;12.434;2023-06-14T04:36:24;98593.78;;;18.50;100.00
33280;BME280;20403;43.114;12.434;2023-06-14T04:38:53;98590.00;;;18.56;100.00
33280;BME280;20403;43.114;12.434;2023-06-14T04:41:20;98600.50;;;18.61;100.00
33280;BME280;20403;43.114;12.434;2023-06-14T04:43:49;98603.00;;;18.72;100.00
33280;BME280;20403;43.114;12.434;2023-06-14T04:46:15;98600.81;;;18.79;100.00
33280;BME280;20403;43.114;12.434;2023-06-14T04:48:41;98600.72;;;18.84;100.00
33280;BME280;20403;43.114;12.434;2023-06-14T04:51:10;98592.22;;;18.87;100.00
33280;BME280;20403;43.114;12.434;2023-06-14T04:53:35;98598.78;;;18.89;100.00
33280;BME280;20403;43.114;12.434;2023-06-14T04:56:01;98596.91;;;18.90;100.00
33280;BME280;20403;43.114;12.434;2023-06-14T04:58:27;98590.44;;;18.82;100.00
33280;BME280;20403;43.114;12.434;2023-06-14T05:00:54;98596.81;;;18.81;100.00
33280;BME280;20403;43.114;12.434;2023-06-14T05:03:21;98596.13;;;18.89;100.00
33280;BME280;20403;43.114;12.434;2023-06-14T05:05:46;98592.44;;;18.91;100.00
33280;BME280;20403;43.114;12.434;2023-06-14T05:08:12;98593.63;;;18.98;100.00
33280;BME280;20403;43.114;12.434;2023-06-14T05:10:38;98592.84;;;18.98;100.00
33280;BME280;20403;43.114;12.434;2023-06-14T05:13:03;98588.06;;;19.00;100.00
33280;BME280;20403;43.114;12.434;2023-06-14T05:15:29;98582.41;;;19.06;100.00
33280;BME280;20403;43.114;12.434;2023-06-14T05:17:54;98591.97;;;19.02;100.00
33280;BME280;20403;43.114;12.434;2023-06-14T05:20:24;98591.25;;;18.97;100.00
33280;BME280;20403;43.114;12.434;2023-06-14T05:22:53;98592.06;;;18.97;100.00
33280;BME280;20403;43.114;12.434;2023-06-14T05:25:20;98588.34;;;18.98;100.00
33280;BME280;20403;43.114;12.434;2023-06-14T05:27:46;98579.44;;;19.08;100.00
33280;BME280;20403;43.114;12.434;2023-06-14T05:30:13;98587.50;;;19.17;100.00
33280;BME280;20403;43.114;12.434;2023-06-14T05:32:38;98584.75;;;19.22;100.00
33280;BME280;20403;43.114;12.434;2023-06-14T05:35:04;98578.78;;;19.16;100.00
33280;BME280;20403;43.114;12.434;2023-06-14T05:37:31;98575.84;;;19.18;100.00
33280;BME280;20403;43.114;12.434;2023-06-14T05:39:56;98570.28;;;19.19;100.00
33280;BME280;20403;43.114;12.434;2023-06-14T05:42:21;98577.34;;;19.24;100.00
33280;BME280;20403;43.114;12.434;2023-06-14T05:44:47;98583.13;;;19.26;100.00
33280;BME280;20403;43.114;12.434;2023-06-14T05:47:12;98581.97;;;19.32;100.00
33280;BME280;20403;43.114;12.434;2023-06-14T05:49:38;98577.25;;;19.29;100.00
33280;BME280;20403;43.114;12.434;2023-06-14T05:52:03;98582.75;;;19.33;100.00
33280;BME280;20403;43.114;12.434;2023-06-14T05:54:30;98577.25;;;19.29;100.00
33280;BME280;20403;43.114;12.434;2023-06-14T05:56:55;98582.53;;;19.29;100.00
33280;BME280;20403;43.114;12.434;2023-06-14T05:59:21;98579.63;;;19.44;100.00
33280;BME280;20403;43.114;12.434;2023-06-14T06:01:46;98589.91;;;19.46;100.00
33280;BME280;20403;43.114;12.434;2023-06-14T06:04:11;98594.22;;;19.42;100.00
33280;BME280;20403;43.114;12.434;2023-06-14T06:06:37;98591.19;;;19.48;100.00
33280;BME280;20403;43.114;12.434;2023-06-14T06:09:02;98589.59;;;19.47;100.00
33280;BME280;20403;43.114;12.434;2023-06-14T06:11:28;98582.47;;;19.48;100.00
33280;BME280;20403;43.114;12.434;2023-06-14T06:13:53;98581.66;;;19.47;100.00
33280;BME280;20403;43.114;12.434;2023-06-14T06:16:19;98571.97;;;19.57;100.00
33280;BME280;20403;43.114;12.434;2023-06-14T06:18:44;98573.94;;;19.65;100.00
33280;BME280;20403;43.114;12.434;2023-06-14T06:21:09;98568.06;;;19.68;100.00
33280;BME280;20403;43.114;12.434;2023-06-14T06:23:35;98572.50;;;19.72;100.00
33280;BME280;20403;43.114;12.434;2023-06-14T06:26:01;98576.81;;;19.82;100.00
33280;BME280;20403;43.114;12.434;2023-06-14T06:28:26;98578.56;;;19.87;100.00
33280;BME280;20403;43.114;12.434;2023-06-14T06:30:51;98585.94;;;19.76;100.00
33280;BME280;20403;43.114;12.434;2023-06-14T06:33:18;98578.28;;;19.75;100.00
33280;BME280;20403;43.114;12.434;2023-06-14T06:35:44;98581.53;;;19.71;100.00
33280;BME280;20403;43.114;12.434;2023-06-14T06:38:09;98575.25;;;19.81;100.00
33280;BME280;20403;43.114;12.434;2023-06-14T06:40:35;98585.72;;;19.86;100.00
33280;BME280;20403;43.114;12.434;2023-06-14T06:43:02;98584.84;;;19.91;100.00
33280;BME280;20403;43.114;12.434;2023-06-14T06:45:28;98582.94;;;20.05;100.00
33280;BME280;20403;43.114;12.434;2023-06-14T06:47:53;98585.91;;;20.04;100.00
33280;BME280;20403;43.114;12.434;2023-06-14T06:50:19;98592.84;;;20.13;100.00
33280;BME280;20403;43.114;12.434;2023-06-14T06:52:50;98594.25;;;20.11;100.00
33280;BME280;20403;43.114;12.434;2023-06-14T06:55:16;98603.72;;;20.12;100.00
33280;BME280;20403;43.114;12.434;2023-06-14T06:57:41;98596.56;;;20.12;100.00
33280;BME280;20403;43.114;12.434;2023-06-14T07:00:10;98600.78;;;20.13;100.00
33280;BME280;20403;43.114;12.434;2023-06-14T07:02:37;98606.19;;;20.22;100.00
33280;BME280;20403;43.114;12.434;2023-06-14T07:05:03;98599.88;;;20.32;100.00
33280;BME280;20403;43.114;12.434;2023-06-14T07:07:29;98603.41;;;20.27;100.00
33280;BME280;20403;43.114;12.434;2023-06-14T07:09:54;98597.84;;;20.29;100.00
33280;BME280;20403;43.114;12.434;2023-06-14T07:12:23;98608.03;;;20.22;100.00
33280;BME280;20403;43.114;12.434;2023-06-14T07:14:48;98607.72;;;20.37;100.00
33280;BME280;20403;43.114;12.434;2023-06-14T07:17:13;98612.69;;;20.52;100.00
33280;BME280;20403;43.114;12.434;2023-06-14T07:19:39;98612.88;;;20.56;100.00
33280;BME280;20403;43.114;12.434;2023-06-14T07:22:04;98619.66;;;20.62;100.00
33280;BME280;20403;43.114;12.434;2023-06-14T07:24:30;98618.53;;;20.63;100.00
33280;BME280;20403;43.114;12.434;2023-06-14T07:26:55;98613.03;;;20.73;100.00
33280;BME280;20403;43.114;12.434;2023-06-14T07:29:21;98615.44;;;20.84;100.00
33280;BME280;20403;43.114;12.434;2023-06-14T07:31:47;98614.50;;;20.80;100.00
33280;BME280;20403;43.114;12.434;2023-06-14T07:34:12;98612.97;;;20.87;100.00
33280;BME280;20403;43.114;12.434;2023-06-14T07:36:37;98621.53;;;20.84;100.00
33280;BME280;20403;43.114;12.434;2023-06-14T07:39:04;98614.94;;;20.82;100.00
33280;BME280;20403;43.114;12.434;2023-06-14T07:41:31;98612.00;;;20.83;100.00
33280;BME280;20403;43.114;12.434;2023-06-14T07:43:56;98619.66;;;20.85;100.00
33280;BME280;20403;43.114;12.434;2023-06-14T07:46:22;98611.34;;;21.00;100.00
33280;BME280;20403;43.114;12.434;2023-06-14T07:48:47;98610.75;;;21.03;100.00
33280;BME280;20403;43.114;12.434;2023-06-14T07:51:13;98605.47;;;21.12;100.00
33280;BME280;20403;43.114;12.434;2023-06-14T07:53:38;98608.19;;;21.20;100.00
33280;BME280;20403;43.114;12.434;2023-06-14T07:56:04;98608.38;;;21.47;100.00
33280;BME280;20403;43.114;12.434;2023-06-14T07:58:30;98606.53;;;21.56;100.00
33280;BME280;20403;43.114;12.434;2023-06-14T08:00:55;98607.88;;;21.45;100.00
33280;BME280;20403;43.114;12.434;2023-06-14T08:03:20;98605.31;;;21.39;100.00
33280;BME280;20403;43.114;12.434;2023-06-14T08:05:47;98612.72;;;21.43;100.00
33280;BME280;20403;43.114;12.434;2023-06-14T08:08:13;98618.00;;;21.43;100.00
33280;BME280;20403;43.114;12.434;2023-06-14T08:10:38;98613.97;;;21.45;100.00
33280;BME280;20403;43.114;12.434;2023-06-14T08:13:04;98611.66;;;21.52;100.00
33280;BME280;20403;43.114;12.434;2023-06-14T08:15:29;98616.13;;;21.83;100.00
33280;BME280;20403;43.114;12.434;2023-06-14T08:17:55;98612.63;;;22.14;100.00
33280;BME280;20403;43.114;12.434;2023-06-14T08:20:20;98610.34;;;22.21;100.00
33280;BME280;20403;43.114;12.434;2023-06-14T08:22:45;98618.00;;;22.31;100.00
33280;BME280;20403;43.114;12.434;2023-06-14T08:25:13;98611.91;;;22.31;100.00
33280;BME280;20403;43.114;12.434;2023-06-14T08:27:38;98610.97;;;22.44;100.00
33280;BME280;20403;43.114;12.434;2023-06-14T08:30:04;98610.53;;;22.51;100.00
33280;BME280;20403;43.114;12.434;2023-06-14T08:32:30;98606.16;;;22.46;100.00
33280;BME280;20403;43.114;12.434;2023-06-14T08:34:55;98608.47;;;22.48;100.00
33280;BME280;20403;43.114;12.434;2023-06-14T08:37:20;98606.75;;;22.52;100.00
33280;BME280;20403;43.114;12.434;2023-06-14T08:39:46;98607.53;;;22.52;100.00
33280;BME280;20403;43.114;12.434;2023-06-14T08:42:12;98603.78;;;22.62;100.00
33280;BME280;20403;43.114;12.434;2023-06-14T08:44:39;98609.59;;;22.55;100.00
33280;BME280;20403;43.114;12.434;2023-06-14T08:47:06;98617.72;;;22.68;100.00
33280;BME280;20403;43.114;12.434;2023-06-14T08:49:32;98614.75;;;22.60;100.00
33280;BME280;20403;43.114;12.434;2023-06-14T08:51:59;98613.31;;;22.45;100.00
33280;BME280;20403;43.114;12.434;2023-06-14T08:54:27;98608.63;;;22.42;100.00
33280;BME280;20403;43.114;12.434;2023-06-14T08:56:55;98609.69;;;22.85;100.00
33280;BME280;20403;43.114;12.434;2023-06-14T08:59:31;98610.63;;;23.15;100.00
33280;BME280;20403;43.114;12.434;2023-06-14T09:02:05;98603.31;;;23.59;100.00
33280;BME280;20403;43.114;12.434;2023-06-14T09:04:30;98599.38;;;23.95;100.00
33280;BME280;20403;43.114;12.434;2023-06-14T09:06:57;98601.34;;;24.28;100.00
33280;BME280;20403;43.114;12.434;2023-06-14T09:09:23;98594.28;;;24.32;100.00
33280;BME280;20403;43.114;12.434;2023-06-14T09:11:52;98596.84;;;24.49;100.00
33280;BME280;20403;43.114;12.434;2023-06-14T09:14:19;98595.13;;;24.45;100.00
33280;BME280;20403;43.114;12.434;2023-06-14T09:16:44;98599.84;;;24.48;100.00
33280;BME280;20403;43.114;12.434;2023-06-14T09:19:20;98596.63;;;24.13;100.00
33280;BME280;20403;43.114;12.434;2023-06-14T09:21:47;98593.41;;;23.98;100.00
33280;BME280;20403;43.114;12.434;2023-06-14T09:24:13;98588.59;;;23.92;100.00
33280;BME280;20403;43.114;12.434;2023-06-14T09:26:39;98597.59;;;24.08;100.00
33280;BME280;20403;43.114;12.434;2023-06-14T09:29:05;98592.19;;;24.17;100.00
33280;BME280;20403;43.114;12.434;2023-06-14T09:31:31;98591.34;;;24.04;100.00
33280;BME280;20403;43.114;12.434;2023-06-14T09:33:58;98587.31;;;23.98;100.00
33280;BME280;20403;43.114;12.434;2023-06-14T09:36:24;98583.63;;;23.81;100.00
33280;BME280;20403;43.114;12.434;2023-06-14T09:39:01;98588.38;;;24.05;100.00
33280;BME280;20403;43.114;12.434;2023-06-14T09:41:35;98579.31;;;24.40;100.00
33280;BME280;20403;43.114;12.434;2023-06-14T09:44:03;98586.41;;;24.78;100.00
33280;BME280;20403;43.114;12.434;2023-06-14T09:46:29;98579.25;;;24.69;100.00
33280;BME280;20403;43.114;12.434;2023-06-14T09:48:58;98576.03;;;24.43;100.00
33280;BME280;20403;43.114;12.434;2023-06-14T09:51:25;98580.66;;;24.33;100.00
33280;BME280;20403;43.114;12.434;2023-06-14T09:53:52;98576.16;;;24.25;100.00
33280;BME280;20403;43.114;12.434;2023-06-14T09:56:35;98572.63;;;23.92;100.00
33280;BME280;20403;43.114;12.434;2023-06-14T09:59:05;98574.19;;;23.54;100.00
33280;BME280;20403;43.114;12.434;2023-06-14T10:01:31;98570.28;;;23.52;100.00
33280;BME280;20403;43.114;12.434;2023-06-14T10:04:06;98569.19;;;23.53;100.00
33280;BME280;20403;43.114;12.434;2023-06-14T10:06:35;98558.78;;;23.68;100.00
33280;BME280;20403;43.114;12.434;2023-06-14T10:09:03;98556.97;;;23.90;100.00
33280;BME280;20403;43.114;12.434;2023-06-14T10:11:29;98547.50;;;24.01;100.00
33280;BME280;20403;43.114;12.434;2023-06-14T10:13:56;98540.28;;;24.02;100.00
33280;BME280;20403;43.114;12.434;2023-06-14T10:16:32;98547.09;;;23.90;100.00
33280;BME280;20403;43.114;12.434;2023-06-14T10:19:21;98550.59;;;23.82;100.00
33280;BME280;20403;43.114;12.434;2023-06-14T10:22:10;98541.19;;;24.06;100.00
33280;BME280;20403;43.114;12.434;2023-06-14T10:24:41;98533.63;;;24.71;100.00
33280;BME280;20403;43.114;12.434;2023-06-14T10:27:07;98533.25;;;25.06;100.00
33280;BME280;20403;43.114;12.434;2023-06-14T10:32:23;98527.50;;;25.53;100.00
33280;BME280;20403;43.114;12.434;2023-06-14T10:34:57;98529.53;;;25.56;100.00
33280;BME280;20403;43.114;12.434;2023-06-14T10:37:23;98518.84;;;25.56;100.00
33280;BME280;20403;43.114;12.434;2023-06-14T10:39:50;98522.72;;;25.46;100.00
33280;BME280;20403;43.114;12.434;2023-06-14T10:42:15;98520.19;;;25.38;100.00
33280;BME280;20403;43.114;12.434;2023-06-14T10:44:51;98530.13;;;25.04;100.00
33280;BME280;20403;43.114;12.434;2023-06-14T10:47:26;98532.66;;;24.88;100.00
33280;BME280;20403;43.114;12.434;2023-06-14T10:49:56;98529.50;;;24.73;100.00
33280;BME280;20403;43.114;12.434;2023-06-14T10:52:25;98524.69;;;24.55;100.00
33280;BME280;20403;43.114;12.434;2023-06-14T10:57:33;98538.47;;;24.36;100.00
33280;BME280;20403;43.114;12.434;2023-06-14T11:00:00;98533.56;;;24.17;100.00
33280;BME280;20403;43.114;12.434;2023-06-14T11:05:14;98541.75;;;23.90;100.00
33280;BME280;20403;43.114;12.434;2023-06-14T11:07:48;98545.59;;;23.72;100.00
33280;BME280;20403;43.114;12.434;2023-06-14T11:10:36;98539.09;;;23.61;100.00
33280;BME280;20403;43.114;12.434;2023-06-14T11:13:08;98539.91;;;23.53;100.00
33280;BME280;20403;43.114;12.434;2023-06-14T11:15:35;98548.22;;;23.51;100.00
33280;BME280;20403;43.114;12.434;2023-06-14T11:18:06;98552.34;;;23.40;100.00
33280;BME280;20403;43.114;12.434;2023-06-14T11:20:33;98545.69;;;23.25;100.00
33280;BME280;20403;43.114;12.434;2023-06-14T11:22:59;98535.72;;;22.96;100.00
33280;BME280;20403;43.114;12.434;2023-06-14T11:25:25;98539.34;;;22.82;100.00
33280;BME280;20403;43.114;12.434;2023-06-14T11:27:53;98539.22;;;22.70;100.00
33280;BME280;20403;43.114;12.434;2023-06-14T11:30:19;98537.03;;;22.63;100.00
33280;BME280;20403;43.114;12.434;2023-06-14T11:32:52;98542.38;;;22.46;100.00
33280;BME280;20403;43.114;12.434;2023-06-14T11:35:19;98541.91;;;22.35;100.00
33280;BME280;20403;43.114;12.434;2023-06-14T11:37:48;98544.41;;;22.23;100.00
33280;BME280;20403;43.114;12.434;2023-06-14T11:40:14;98547.19;;;22.09;100.00
33280;BME280;20403;43.114;12.434;2023-06-14T11:42:41;98549.03;;;22.00;100.00
33280;BME280;20403;43.114;12.434;2023-06-14T11:45:11;98563.81;;;21.75;100.00
33280;BME280;20403;43.114;12.434;2023-06-14T11:47:38;98567.66;;;21.51;100.00
33280;BME280;20403;43.114;12.434;2023-06-14T11:50:06;98571.63;;;21.09;100.00
33280;BME280;20403;43.114;12.434;2023-06-14T11:52:32;98561.72;;;20.92;100.00
33280;BME280;20403;43.114;12.434;2023-06-14T11:54:58;98562.44;;;20.84;100.00
33280;BME280;20403;43.114;12.434;2023-06-14T11:57:24;98557.63;;;20.86;100.00
33280;BME280;20403;43.114;12.434;2023-06-14T11:59:49;98542.94;;;20.80;100.00
33280;BME280;20403;43.114;12.434;2023-06-14T12:02:19;98552.94;;;20.83;100.00
33280;BME280;20403;43.114;12.434;2023-06-14T12:04:48;98550.75;;;20.85;100.00
33280;BME280;20403;43.114;12.434;2023-06-14T12:07:15;98557.88;;;20.98;100.00
33280;BME280;20403;43.114;12.434;2023-06-14T12:09:43;98549.91;;;20.98;100.00
33280;BME280;20403;43.114;12.434;2023-06-14T12:12:35;98553.56;;;20.88;100.00
33280;BME280;20403;43.114;12.434;2023-06-14T12:15:03;98554.59;;;20.56;100.00
33280;BME280;20403;43.114;12.434;2023-06-14T12:17:39;98550.72;;;20.40;100.00
33280;BME280;20403;43.114;12.434;2023-06-14T12:20:14;98544.88;;;20.29;100.00
33280;BME280;20403;43.114;12.434;2023-06-14T12:22:53;98546.75;;;20.14;100.00
33280;BME280;20403;43.114;12.434;2023-06-14T12:25:31;98554.53;;;20.11;100.00
33280;BME280;20403;43.114;12.434;2023-06-14T12:28:04;98554.53;;;20.11;100.00
33280;BME280;20403;43.114;12.434;2023-06-14T12:30:31;98555.41;;;20.06;100.00
33280;BME280;20403;43.114;12.434;2023-06-14T12:32:56;98558.06;;;20.06;100.00
33280;BME280;20403;43.114;12.434;2023-06-14T12:35:21;98567.88;;;20.06;100.00
33280;BME280;20403;43.114;12.434;2023-06-14T12:37:47;98564.22;;;20.15;100.00
33280;BME280;20403;43.114;12.434;2023-06-14T12:40:13;98565.66;;;20.22;100.00
33280;BME280;20403;43.114;12.434;2023-06-14T12:42:40;98560.94;;;20.32;100.00
33280;BME280;20403;43.114;12.434;2023-06-14T12:45:06;98554.47;;;20.39;100.00
33280;BME280;20403;43.114;12.434;2023-06-14T12:47:31;98551.94;;;20.33;100.00
33280;BME280;20403;43.114;12.434;2023-06-14T12:49:56;98553.88;;;20.28;100.00